createdAt,value
2022-08-30T00:02:05.915Z,5.13
2022-08-30T00:04:32.815Z,5.35
2022-08-30T00:07:02.396Z,5.18
2022-08-30T00:09:29.248Z,5.15
2022-08-30T00:11:56.169Z,4.97
2022-08-30T00:14:23.103Z,5.57
2022-08-30T00:16:50.951Z,5.40
2022-08-30T00:19:17.879Z,5.30
2022-08-30T00:21:44.930Z,4.88
2022-08-30T00:24:11.886Z,5.20
2022-08-30T00:26:38.709Z,4.75
2022-08-30T00:29:05.558Z,5.05
2022-08-30T00:31:32.502Z,5.25
2022-08-30T00:33:59.515Z,5.35
2022-08-30T00:36:26.574Z,4.95
2022-08-30T00:38:53.941Z,5.35
2022-08-30T00:41:22.058Z,5.25
2022-08-30T00:43:48.910Z,5.43
2022-08-30T00:46:15.804Z,5.18
2022-08-30T00:48:46.270Z,5.40
2022-08-30T00:51:14.403Z,6.20
2022-08-30T00:53:49.034Z,5.40
2022-08-30T00:56:18.042Z,5.45
2022-08-30T00:58:49.354Z,5.72
2022-08-30T01:01:17.227Z,5.20
2022-08-30T01:03:45.426Z,5.05
2022-08-30T01:06:15.761Z,5.97
2022-08-30T01:08:43.698Z,5.40
2022-08-30T01:11:12.383Z,6.07
2022-08-30T01:13:40.768Z,5.30
2022-08-30T01:16:08.577Z,5.70
2022-08-30T01:18:37.210Z,5.60
2022-08-30T01:21:40.979Z,6.72
2022-08-30T01:24:09.449Z,6.90
2022-08-30T01:26:37.336Z,5.63
2022-08-30T01:29:10.413Z,5.60
2022-08-30T01:31:37.459Z,5.60
2022-08-30T01:34:07.657Z,6.35
2022-08-30T01:36:37.763Z,5.82
2022-08-30T01:39:16.319Z,5.55
2022-08-30T01:41:43.730Z,5.80
2022-08-30T01:44:12.432Z,4.85
2022-08-30T01:46:43.341Z,5.32
2022-08-30T01:49:13.169Z,5.82
2022-08-30T01:51:40.709Z,5.70
2022-08-30T01:54:08.679Z,5.75
2022-08-30T01:56:35.673Z,5.78
2022-08-30T01:59:03.323Z,5.68
2022-08-30T02:01:32.948Z,5.15
2022-08-30T02:04:00.789Z,5.82
2022-08-30T02:06:28.058Z,5.32
2022-08-30T02:08:55.145Z,5.72
2022-08-30T02:11:22.126Z,5.65
2022-08-30T02:13:49.394Z,6.03
2022-08-30T02:16:18.609Z,5.43
2022-08-30T02:18:45.743Z,5.07
2022-08-30T02:21:13.450Z,5.68
2022-08-30T02:23:41.107Z,6.00
2022-08-30T02:26:08.802Z,6.75
2022-08-30T02:28:35.791Z,6.13
2022-08-30T02:31:16.993Z,5.32
2022-08-30T02:33:46.786Z,6.57
2022-08-30T02:36:14.060Z,6.50
2022-08-30T02:38:40.917Z,6.57
2022-08-30T02:41:07.899Z,6.63
2022-08-30T02:43:34.812Z,6.35
2022-08-30T02:46:01.841Z,5.38
2022-08-30T02:48:28.760Z,5.88
2022-08-30T02:50:55.632Z,6.75
2022-08-30T02:53:23.176Z,6.82
2022-08-30T02:55:50.123Z,7.05
2022-08-30T02:58:17.033Z,5.93
2022-08-30T03:00:44.295Z,6.10
2022-08-30T03:03:11.274Z,5.85
2022-08-30T03:05:39.905Z,6.40
2022-08-30T03:08:08.281Z,6.68
2022-08-30T03:10:35.413Z,6.70
2022-08-30T03:13:03.476Z,5.50
2022-08-30T03:15:30.389Z,5.63
2022-08-30T03:17:58.579Z,6.00
2022-08-30T03:20:25.558Z,6.10
2022-08-30T03:22:52.994Z,7.13
2022-08-30T03:25:21.219Z,6.60
2022-08-30T03:27:49.502Z,8.52
2022-08-30T03:30:18.728Z,7.57
2022-08-30T03:32:46.078Z,7.10
2022-08-30T03:35:14.710Z,7.05
2022-08-30T03:37:41.667Z,7.05
2022-08-30T03:40:10.107Z,7.18
2022-08-30T03:42:37.791Z,7.25
2022-08-30T03:45:07.607Z,7.13
2022-08-30T03:47:34.692Z,7.60
2022-08-30T03:50:02.226Z,8.00
2022-08-30T03:52:29.128Z,6.57
2022-08-30T03:54:56.064Z,7.28
2022-08-30T03:57:24.559Z,6.80
2022-08-30T03:59:51.838Z,7.25
2022-08-30T04:02:19.345Z,7.63
2022-08-30T04:04:46.796Z,7.30
2022-08-30T04:07:13.686Z,7.15
2022-08-30T04:09:41.897Z,6.00
2022-08-30T04:12:09.354Z,7.43
2022-08-30T04:14:36.237Z,7.47
2022-08-30T04:17:03.347Z,5.72
2022-08-30T04:19:30.285Z,6.32
2022-08-30T04:21:57.402Z,6.30
2022-08-30T04:24:24.639Z,5.95
2022-08-30T04:26:51.602Z,6.35
2022-08-30T04:29:18.615Z,6.63
2022-08-30T04:31:45.803Z,6.90
2022-08-30T04:34:14.090Z,6.20
2022-08-30T04:36:41.169Z,6.22
2022-08-30T04:39:08.088Z,7.03
2022-08-30T04:41:37.195Z,7.38
2022-08-30T04:44:04.162Z,7.40
2022-08-30T04:46:31.117Z,6.72
2022-08-30T04:48:58.054Z,6.80
2022-08-30T04:51:25.018Z,6.90
2022-08-30T04:53:51.983Z,7.07
2022-08-30T04:56:24.893Z,7.00
2022-08-30T04:58:53.937Z,6.70
2022-08-30T05:01:25.378Z,7.00
2022-08-30T05:03:54.938Z,7.05
2022-08-30T05:06:23.571Z,6.85
2022-08-30T05:08:51.938Z,6.10
2022-08-30T05:11:19.117Z,6.10
2022-08-30T05:13:46.816Z,5.97
2022-08-30T05:16:19.503Z,5.93
2022-08-30T05:18:48.306Z,5.47
2022-08-30T05:21:18.725Z,5.57
2022-08-30T05:23:46.176Z,6.28
2022-08-30T05:26:18.245Z,6.70
2022-08-30T05:28:46.154Z,9.00
2022-08-30T05:31:19.797Z,7.28
2022-08-30T05:33:47.773Z,7.30
2022-08-30T05:36:16.244Z,6.18
2022-08-30T05:38:43.519Z,5.90
2022-08-30T05:41:11.310Z,5.43
2022-08-30T05:43:39.093Z,5.90
2022-08-30T05:46:12.120Z,6.80
2022-08-30T05:48:40.338Z,8.20
2022-08-30T05:51:13.860Z,7.95
2022-08-30T05:53:41.272Z,7.35
2022-08-30T05:56:11.753Z,6.50
2022-08-30T05:58:39.700Z,6.03
2022-08-30T06:01:07.259Z,6.47
2022-08-30T06:03:34.625Z,7.75
2022-08-30T06:06:01.758Z,6.82
2022-08-30T06:08:28.659Z,6.95
2022-08-30T06:10:55.545Z,8.02
2022-08-30T06:13:22.526Z,8.07
2022-08-30T06:15:49.713Z,6.55
2022-08-30T06:18:17.130Z,6.00
2022-08-30T06:20:50.181Z,5.75
2022-08-30T06:23:18.160Z,6.18
2022-08-30T06:25:45.087Z,6.82
2022-08-30T06:28:12.739Z,5.78
2022-08-30T06:30:42.103Z,5.32
2022-08-30T06:33:10.029Z,4.68
2022-08-30T06:35:46.750Z,4.82
2022-08-30T06:38:23.928Z,4.95
2022-08-30T06:40:51.036Z,4.35
2022-08-30T06:43:17.910Z,5.50
2022-08-30T06:45:44.807Z,5.53
2022-08-30T06:48:11.743Z,5.65
2022-08-30T06:50:38.649Z,6.63
2022-08-30T06:53:06.123Z,6.05
2022-08-30T06:55:36.281Z,5.60
2022-08-30T06:58:04.363Z,5.15
2022-08-30T07:00:31.253Z,5.13
2022-08-30T07:02:58.672Z,5.90
2022-08-30T07:05:25.774Z,4.80
2022-08-30T07:07:55.516Z,4.05
2022-08-30T07:10:22.456Z,5.18
2022-08-30T07:12:49.802Z,4.97
2022-08-30T07:15:20.643Z,4.38
2022-08-30T07:18:05.843Z,4.30
2022-08-30T07:20:40.260Z,5.20
2022-08-30T07:23:08.219Z,4.32
2022-08-30T07:25:37.277Z,4.40
2022-08-30T07:28:06.398Z,4.95
2022-08-30T07:30:34.078Z,4.53
2022-08-30T07:33:00.957Z,4.53
2022-08-30T07:35:28.425Z,4.88
2022-08-30T07:37:55.345Z,4.00
2022-08-30T07:40:22.498Z,4.35
2022-08-30T07:42:49.450Z,4.70
2022-08-30T07:45:16.491Z,4.60
2022-08-30T07:47:43.350Z,4.05
2022-08-30T07:50:10.196Z,3.88
2022-08-30T07:55:10.165Z,3.47
2022-08-30T07:57:37.239Z,3.35
2022-08-30T08:00:05.981Z,4.00
2022-08-30T08:02:33.729Z,4.40
2022-08-30T08:05:00.913Z,3.42
2022-08-30T08:07:27.824Z,3.70
2022-08-30T08:09:54.730Z,3.15
2022-08-30T08:12:21.642Z,4.00
2022-08-30T08:14:48.467Z,3.70
2022-08-30T08:17:15.314Z,3.15
2022-08-30T08:19:42.322Z,4.13
2022-08-30T08:22:20.672Z,4.03
2022-08-30T08:24:49.464Z,3.85
2022-08-30T08:27:16.494Z,3.72
2022-08-30T08:29:43.429Z,3.40
2022-08-30T08:32:10.329Z,3.83
2022-08-30T08:34:37.367Z,3.25
2022-08-30T08:37:05.170Z,4.95
2022-08-30T08:39:32.090Z,4.03
2022-08-30T08:42:20.405Z,3.40
2022-08-30T08:45:11.633Z,3.60
2022-08-30T08:48:02.624Z,4.07
2022-08-30T08:50:31.526Z,3.70
2022-08-30T08:53:46.493Z,4.45
2022-08-30T08:56:16.880Z,3.88
2022-08-30T08:58:48.285Z,4.13
2022-08-30T09:03:44.167Z,3.60
2022-08-30T09:06:20.529Z,3.20
2022-08-30T09:08:47.422Z,3.80
2022-08-30T09:11:26.277Z,4.30
2022-08-30T09:13:54.657Z,5.05
2022-08-30T09:16:49.212Z,3.35
2022-08-30T09:19:35.270Z,3.60
2022-08-30T09:22:05.984Z,3.80
2022-08-30T09:25:02.064Z,4.00
2022-08-30T09:27:32.069Z,3.83
2022-08-30T09:30:15.965Z,3.63
2022-08-30T09:32:52.510Z,3.00
2022-08-30T09:35:24.124Z,3.03
2022-08-30T09:37:57.785Z,3.53
2022-08-30T09:40:43.306Z,2.72
2022-08-30T09:43:17.486Z,3.28
2022-08-30T09:46:07.252Z,2.05
2022-08-30T09:48:45.547Z,3.10
2022-08-30T09:51:15.035Z,3.60
2022-08-30T09:54:07.148Z,1.90
2022-08-30T09:56:56.488Z,1.95
2022-08-30T09:59:57.733Z,2.28
2022-08-30T10:02:57.617Z,2.60
2022-08-30T10:08:41.516Z,2.58
2022-08-30T10:11:25.048Z,1.77
2022-08-30T10:14:08.573Z,2.10
2022-08-30T10:16:42.909Z,2.40
2022-08-30T10:19:09.799Z,3.15
2022-08-30T10:21:48.379Z,2.58
2022-08-30T10:24:31.231Z,1.65
2022-08-30T10:27:09.144Z,1.88
2022-08-30T10:29:53.513Z,1.80
2022-08-30T10:32:43.118Z,1.77
2022-08-30T10:35:25.972Z,2.42
2022-08-30T10:40:53.816Z,1.65
2022-08-30T10:44:08.740Z,1.60
2022-08-30T10:46:50.687Z,1.45
2022-08-30T10:49:23.642Z,1.80
2022-08-30T10:52:17.440Z,1.80
2022-08-30T10:54:48.629Z,1.48
2022-08-30T10:57:18.030Z,2.75
2022-08-30T11:00:08.093Z,3.92
2022-08-30T11:02:43.585Z,2.80
2022-08-30T11:05:41.963Z,2.45
2022-08-30T11:08:41.288Z,1.25
2022-08-30T11:11:29.892Z,1.05
2022-08-30T11:14:05.451Z,1.00
2022-08-30T11:16:39.834Z,1.50
2022-08-30T11:19:21.988Z,1.52
2022-08-30T11:21:51.062Z,2.05
2022-08-30T11:24:23.889Z,1.42
2022-08-30T11:26:57.584Z,1.80
2022-08-30T11:32:23.841Z,1.10
2022-08-30T11:34:56.777Z,1.65
2022-08-30T11:37:40.967Z,1.73
2022-08-30T11:40:14.252Z,1.10
2022-08-30T11:42:46.790Z,1.60
2022-08-30T11:45:25.173Z,2.00
2022-08-30T11:47:59.860Z,1.30
2022-08-30T11:50:32.819Z,1.30
2022-08-30T11:53:07.163Z,1.80
2022-08-30T11:55:45.191Z,2.03
2022-08-30T11:58:15.497Z,1.40
2022-08-30T12:00:52.572Z,1.50
2022-08-30T12:03:20.552Z,1.40
2022-08-30T12:06:10.235Z,1.30
2022-08-30T12:08:45.133Z,1.42
2022-08-30T12:11:14.183Z,1.50
2022-08-30T12:13:44.007Z,1.70
2022-08-30T12:16:19.931Z,1.33
2022-08-30T12:18:50.740Z,1.90
2022-08-30T12:21:21.331Z,2.03
2022-08-30T12:23:48.777Z,1.45
2022-08-30T12:26:25.099Z,1.60
2022-08-30T12:29:15.019Z,1.58
2022-08-30T12:31:49.923Z,1.70
2022-08-30T12:34:35.334Z,1.45
2022-08-30T12:37:08.744Z,1.52
2022-08-30T12:39:40.023Z,1.40
2022-08-30T12:42:28.195Z,1.15
2022-08-30T12:44:58.794Z,1.27
2022-08-30T12:47:46.765Z,1.23
2022-08-30T12:50:17.902Z,1.23
2022-08-30T12:52:48.585Z,1.10
2022-08-30T12:55:25.393Z,2.63
2022-08-30T12:58:01.156Z,1.67
2022-08-30T13:00:28.151Z,1.50
2022-08-30T13:02:58.060Z,0.95
2022-08-30T13:05:44.529Z,1.80
2022-08-30T13:08:21.463Z,1.65
2022-08-30T13:10:54.230Z,1.40
2022-08-30T13:13:52.066Z,1.30
2022-08-30T13:16:22.376Z,1.27
2022-08-30T13:19:13.822Z,1.50
2022-08-30T13:24:16.900Z,1.20
2022-08-30T13:26:45.198Z,1.35
2022-08-30T13:29:19.028Z,1.35
2022-08-30T13:31:46.537Z,1.90
2022-08-30T13:34:19.081Z,1.60
2022-08-30T13:36:53.477Z,1.20
2022-08-30T13:39:21.863Z,1.45
2022-08-30T13:41:49.444Z,2.60
2022-08-30T13:44:16.619Z,2.03
2022-08-30T13:46:53.024Z,2.10
2022-08-30T13:49:45.927Z,1.45
2022-08-30T13:52:21.699Z,1.20
2022-08-30T13:54:54.435Z,1.58
2022-08-30T14:00:17.653Z,2.10
2022-08-30T14:02:50.120Z,2.13
2022-08-30T14:05:47.512Z,1.48
2022-08-30T14:11:01.518Z,1.35
2022-08-30T14:13:29.395Z,1.38
2022-08-30T14:18:45.303Z,1.85
2022-08-30T14:21:12.233Z,2.05
2022-08-30T14:23:39.143Z,1.90
2022-08-30T14:26:12.136Z,1.92
2022-08-30T14:28:39.275Z,1.60
2022-08-30T14:31:06.498Z,1.80
2022-08-30T14:33:33.643Z,1.67
2022-08-30T14:36:00.530Z,1.90
2022-08-30T14:38:27.476Z,1.60
2022-08-30T14:40:54.519Z,2.20
2022-08-30T14:43:21.468Z,1.80
2022-08-30T14:45:50.864Z,1.90
2022-08-30T14:48:18.018Z,2.20
2022-08-30T14:50:46.797Z,1.48
2022-08-30T14:53:13.688Z,1.33
2022-08-30T14:55:41.865Z,1.05
2022-08-30T14:58:10.780Z,1.35
2022-08-30T15:00:38.711Z,1.27
2022-08-30T15:03:05.919Z,1.25
2022-08-30T15:05:32.741Z,1.38
2022-08-30T15:07:59.801Z,1.20
2022-08-30T15:10:27.267Z,1.50
2022-08-30T15:12:54.184Z,1.50
2022-08-30T15:15:22.340Z,1.45
2022-08-30T15:17:49.555Z,1.63
2022-08-30T15:20:20.809Z,1.02
2022-08-30T15:22:47.803Z,1.60
2022-08-30T15:25:14.823Z,1.45
2022-08-30T15:27:41.777Z,1.85
2022-08-30T15:30:11.081Z,1.77
2022-08-30T15:32:38.081Z,1.77
2022-08-30T15:35:05.885Z,1.80
2022-08-30T15:37:35.105Z,2.42
2022-08-30T15:40:04.756Z,1.70
2022-08-30T15:42:33.750Z,1.48
2022-08-30T15:45:00.718Z,1.40
2022-08-30T15:47:27.738Z,0.80
2022-08-30T15:49:56.839Z,1.88
2022-08-30T15:52:24.492Z,1.50
2022-08-30T15:54:51.667Z,2.38
2022-08-30T15:57:19.063Z,1.85
2022-08-30T15:59:46.014Z,1.30
2022-08-30T16:02:13.016Z,1.35
2022-08-30T16:04:40.563Z,1.30
2022-08-30T16:07:08.868Z,1.88
2022-08-30T16:09:37.087Z,1.13
2022-08-30T16:12:06.751Z,1.10
2022-08-30T16:14:34.713Z,1.20
2022-08-30T16:17:02.113Z,1.00
2022-08-30T16:19:29.134Z,1.17
2022-08-30T16:21:56.648Z,1.05
2022-08-30T16:24:24.890Z,0.85
2022-08-30T16:26:52.127Z,1.10
2022-08-30T16:29:19.034Z,1.10
2022-08-30T16:31:47.566Z,1.20
2022-08-30T16:34:16.840Z,1.30
2022-08-30T16:36:43.820Z,1.20
2022-08-30T16:39:13.507Z,1.17
2022-08-30T16:41:41.857Z,1.10
2022-08-30T16:44:09.430Z,1.50
2022-08-30T16:46:40.295Z,1.23
2022-08-30T16:49:08.976Z,1.20
2022-08-30T16:51:36.882Z,1.70
2022-08-30T16:54:07.849Z,1.30
2022-08-30T16:56:36.309Z,1.65
2022-08-30T16:59:09.030Z,1.30
2022-08-30T17:01:38.847Z,1.00
2022-08-30T17:04:08.287Z,1.17
2022-08-30T17:06:36.051Z,1.80
2022-08-30T17:09:04.307Z,1.90
2022-08-30T17:11:32.366Z,1.90
2022-08-30T17:13:59.544Z,1.48
2022-08-30T17:16:29.961Z,1.42
2022-08-30T17:19:00.368Z,2.20
2022-08-30T17:21:29.664Z,1.95
2022-08-30T17:24:02.495Z,1.50
2022-08-30T17:26:32.365Z,2.03
2022-08-30T17:28:59.349Z,1.60
2022-08-30T17:31:30.401Z,1.77
2022-08-30T17:34:03.337Z,1.85
2022-08-30T17:36:36.374Z,1.60
2022-08-30T17:39:11.015Z,1.60
2022-08-30T17:41:40.103Z,1.55
2022-08-30T17:44:10.738Z,1.65
2022-08-30T17:46:38.434Z,1.30
2022-08-30T17:49:05.928Z,1.40
2022-08-30T17:51:33.153Z,1.38
2022-08-30T17:54:00.470Z,1.40
2022-08-30T17:56:34.019Z,1.23
2022-08-30T17:59:01.343Z,1.33
2022-08-30T18:01:28.656Z,1.00
2022-08-30T18:04:02.000Z,1.20
2022-08-30T18:06:33.342Z,1.50
2022-08-30T18:09:06.561Z,2.00
2022-08-30T18:11:36.146Z,1.40
2022-08-30T18:14:04.288Z,1.30
2022-08-30T18:16:36.095Z,1.70
2022-08-30T18:19:04.697Z,1.30
2022-08-30T18:21:37.790Z,1.50
2022-08-30T18:24:06.020Z,1.30
2022-08-30T18:26:33.517Z,1.40
2022-08-30T18:29:00.689Z,2.08
2022-08-30T18:31:27.584Z,1.83
2022-08-30T18:33:55.442Z,1.40
2022-08-30T18:36:22.378Z,1.50
2022-08-30T18:38:49.235Z,1.65
2022-08-30T18:41:17.295Z,1.35
2022-08-30T18:43:44.973Z,1.40
2022-08-30T18:46:14.178Z,1.30
2022-08-30T18:48:41.727Z,1.30
2022-08-30T18:51:20.681Z,1.50
2022-08-30T18:53:49.232Z,1.02
2022-08-30T18:56:17.157Z,1.23
2022-08-30T18:58:45.946Z,1.25
2022-08-30T19:01:13.455Z,1.20
2022-08-30T19:03:41.885Z,1.38
2022-08-30T19:06:11.612Z,1.40
2022-08-30T19:08:40.298Z,1.27
2022-08-30T19:11:08.970Z,2.67
2022-08-30T19:13:37.018Z,2.70
2022-08-30T19:16:05.676Z,2.42
2022-08-30T19:18:33.280Z,1.10
2022-08-30T19:21:00.316Z,1.40
2022-08-30T19:23:33.968Z,1.70
2022-08-30T19:26:01.388Z,1.35
2022-08-30T19:28:28.605Z,2.15
2022-08-30T19:30:55.518Z,1.52
2022-08-30T19:33:29.177Z,1.50
2022-08-30T19:35:56.956Z,1.42
2022-08-30T19:38:24.077Z,1.27
2022-08-30T19:40:58.587Z,1.38
2022-08-30T19:43:27.035Z,1.50
2022-08-30T19:45:58.870Z,1.30
2022-08-30T19:48:32.932Z,1.40
2022-08-30T19:51:08.590Z,1.48
2022-08-30T19:53:36.586Z,1.30
2022-08-30T19:56:03.873Z,1.20
2022-08-30T19:58:30.765Z,2.03
2022-08-30T20:01:10.893Z,1.58
2022-08-30T20:03:40.335Z,1.50
2022-08-30T20:06:08.957Z,1.30
2022-08-30T20:08:36.715Z,1.60
2022-08-30T20:11:04.943Z,1.40
2022-08-30T20:13:33.784Z,1.38
2022-08-30T20:16:01.396Z,1.15
2022-08-30T20:18:29.051Z,1.58
2022-08-30T20:20:56.416Z,1.27
2022-08-30T20:23:25.385Z,1.90
2022-08-30T20:25:54.577Z,2.05
2022-08-30T20:28:22.204Z,1.88
2022-08-30T20:30:49.744Z,1.75
2022-08-30T20:33:17.661Z,2.22
2022-08-30T20:35:49.012Z,2.10
2022-08-30T20:38:23.849Z,3.72
2022-08-30T20:40:54.624Z,2.15
2022-08-30T20:43:24.161Z,4.32
2022-08-30T20:45:51.737Z,3.03
2022-08-30T20:48:19.590Z,1.80
2022-08-30T20:50:46.715Z,1.90
2022-08-30T20:53:14.173Z,1.30
2022-08-30T20:55:46.504Z,1.63
2022-08-30T20:58:14.493Z,2.53
2022-08-30T21:00:45.788Z,2.60
2022-08-30T21:03:26.205Z,2.70
2022-08-30T21:05:56.199Z,3.35
2022-08-30T21:08:23.115Z,3.55
2022-08-30T21:10:50.072Z,2.60
2022-08-30T21:13:17.343Z,2.15
2022-08-30T21:15:47.461Z,2.13
2022-08-30T21:18:14.630Z,1.95
2022-08-30T21:20:41.895Z,1.73
2022-08-30T21:23:08.923Z,1.50
2022-08-30T21:25:39.583Z,1.80
2022-08-30T21:28:07.054Z,1.60
2022-08-30T21:30:35.084Z,1.58
2022-08-30T21:33:04.132Z,1.40
2022-08-30T21:35:51.673Z,1.10
2022-08-30T21:38:20.012Z,1.92
2022-08-30T21:40:48.522Z,1.52
2022-08-30T21:43:18.719Z,1.20
2022-08-30T21:45:45.809Z,1.15
2022-08-30T21:48:15.313Z,1.20
2022-08-30T21:50:43.163Z,1.15
2022-08-30T21:53:10.645Z,1.20
2022-08-30T21:55:37.842Z,1.00
2022-08-30T21:58:04.855Z,0.90
2022-08-30T22:00:33.657Z,0.98
2022-08-30T22:03:00.720Z,0.90
2022-08-30T22:05:27.765Z,0.90
2022-08-30T22:07:54.666Z,1.02
2022-08-30T22:10:21.607Z,1.00
2022-08-30T22:12:48.497Z,1.00
2022-08-30T22:15:15.614Z,1.10
2022-08-30T22:17:43.579Z,1.02
2022-08-30T22:20:12.021Z,0.95
2022-08-30T22:22:45.546Z,0.95
2022-08-30T22:25:12.637Z,1.00
2022-08-30T22:27:39.567Z,1.35
2022-08-30T22:30:06.983Z,1.00
2022-08-30T22:32:33.921Z,1.00
2022-08-30T22:35:00.815Z,0.85
2022-08-30T22:37:27.700Z,0.90
2022-08-30T22:39:54.762Z,1.05
2022-08-30T22:42:21.726Z,1.13
2022-08-30T22:44:48.600Z,1.20
2022-08-30T22:47:15.482Z,1.08
2022-08-30T22:49:42.369Z,1.00
2022-08-30T22:52:09.281Z,0.98
2022-08-30T22:54:37.152Z,1.00
2022-08-30T22:57:04.627Z,1.20
2022-08-30T22:59:32.462Z,1.33
2022-08-30T23:01:59.937Z,1.73
2022-08-30T23:04:26.983Z,2.00
2022-08-30T23:06:53.908Z,2.72
2022-08-30T23:09:20.856Z,2.10
2022-08-30T23:11:47.844Z,2.13
2022-08-30T23:14:14.845Z,2.58
2022-08-30T23:16:41.747Z,1.80
2022-08-30T23:19:09.188Z,1.88
2022-08-30T23:21:36.110Z,2.17
2022-08-30T23:24:21.515Z,2.50
2022-08-30T23:27:06.886Z,2.88
2022-08-30T23:29:53.912Z,2.35
2022-08-30T23:32:39.847Z,2.38
2022-08-30T23:35:29.440Z,2.95
2022-08-30T23:38:18.494Z,1.85
2022-08-30T23:41:03.855Z,1.50
2022-08-30T23:43:49.102Z,1.58
2022-08-30T23:46:34.790Z,1.27
2022-08-30T23:49:20.547Z,1.50
2022-08-30T23:52:05.918Z,1.23
2022-08-30T23:54:51.988Z,1.35
2022-08-30T23:57:43.790Z,1.65
